createdAt,value
2022-09-16T00:00:27.699Z,100182.34
2022-09-16T00:02:55.309Z,100181.63
2022-09-16T00:05:22.581Z,100186.63
2022-09-16T00:07:49.234Z,100192.63
2022-09-16T00:10:16.102Z,100186.09
2022-09-16T00:12:42.835Z,100182.19
2022-09-16T00:15:10.346Z,100180.53
2022-09-16T00:17:37.877Z,100176.50
2022-09-16T00:20:05.770Z,100186.34
2022-09-16T00:22:32.532Z,100179.63
2022-09-16T00:24:59.127Z,100169.94
2022-09-16T00:27:25.744Z,100174.50
2022-09-16T00:29:52.344Z,100185.41
2022-09-16T00:32:19.277Z,100180.59
2022-09-16T00:34:45.815Z,100170.03
2022-09-16T00:37:12.380Z,100184.88
2022-09-16T00:39:38.940Z,100174.78
2022-09-16T00:42:05.871Z,100173.25
2022-09-16T00:44:52.553Z,100177.72
2022-09-16T00:47:34.765Z,100177.09
2022-09-16T00:50:10.521Z,100179.66
2022-09-16T00:52:40.066Z,100177.41
2022-09-16T00:55:09.857Z,100171.56
2022-09-16T00:57:37.963Z,100181.75
2022-09-16T01:00:06.282Z,100178.66
2022-09-16T01:02:32.962Z,100177.81
2022-09-16T01:05:06.861Z,100176.25
2022-09-16T01:07:40.217Z,100171.41
2022-09-16T01:10:07.523Z,100180.16
2022-09-16T01:12:35.251Z,100178.41
2022-09-16T01:15:03.159Z,100179.88
2022-09-16T01:18:00.849Z,100180.97
2022-09-16T01:20:58.307Z,100184.72
2022-09-16T01:23:27.927Z,100185.72
2022-09-16T01:26:31.755Z,100188.97
2022-09-16T01:29:33.638Z,100183.50
2022-09-16T01:32:23.345Z,100188.97
2022-09-16T01:35:17.087Z,100182.97
2022-09-16T01:38:01.682Z,100191.34
2022-09-16T01:40:30.799Z,100182.41
2022-09-16T01:43:11.119Z,100184.44
2022-09-16T01:45:52.202Z,100179.88
2022-09-16T01:48:25.175Z,100182.81
2022-09-16T01:50:58.317Z,100176.97
2022-09-16T01:53:34.992Z,100184.22
2022-09-16T01:56:22.711Z,100181.91
2022-09-16T01:58:57.447Z,100181.38
2022-09-16T02:01:54.393Z,100177.34
2022-09-16T02:04:49.197Z,100177.69
2022-09-16T02:07:21.032Z,100181.56
2022-09-16T02:09:58.168Z,100179.75
2022-09-16T02:12:29.148Z,100180.28
2022-09-16T02:15:03.630Z,100175.53
2022-09-16T02:17:33.448Z,100176.81
2022-09-16T02:20:07.802Z,100168.34
2022-09-16T02:22:39.849Z,100168.03
2022-09-16T02:25:09.977Z,100169.88
2022-09-16T02:27:39.079Z,100171.97
2022-09-16T02:30:09.359Z,100166.59
2022-09-16T02:32:41.907Z,100166.34
2022-09-16T02:35:12.519Z,100165.22
2022-09-16T02:37:51.985Z,100164.84
2022-09-16T02:40:48.653Z,100156.16
2022-09-16T02:43:15.780Z,100153.16
2022-09-16T02:46:06.145Z,100160.97
2022-09-16T02:48:51.025Z,100154.53
2022-09-16T02:51:26.701Z,100147.06
2022-09-16T02:54:01.532Z,100144.31
2022-09-16T02:56:36.213Z,100146.38
2022-09-16T02:59:05.745Z,100145.91
2022-09-16T03:01:38.027Z,100141.00
2022-09-16T03:04:04.735Z,100153.97
2022-09-16T03:06:35.930Z,100144.84
2022-09-16T03:09:06.126Z,100142.75
2022-09-16T03:11:57.311Z,100140.81
2022-09-16T03:14:52.983Z,100142.91
2022-09-16T03:17:34.308Z,100137.47
2022-09-16T03:20:19.033Z,100141.22
2022-09-16T03:22:52.751Z,100134.63
2022-09-16T03:26:04.476Z,100146.75
2022-09-16T03:28:54.698Z,100141.03
2022-09-16T03:31:30.044Z,100139.97
2022-09-16T03:34:09.270Z,100144.69
2022-09-16T03:36:44.517Z,100145.13
2022-09-16T03:39:12.032Z,100142.69
2022-09-16T03:41:39.165Z,100147.22
2022-09-16T03:44:05.879Z,100142.41
2022-09-16T03:46:32.652Z,100141.22
2022-09-16T03:48:59.686Z,100137.16
2022-09-16T03:51:26.758Z,100144.91
2022-09-16T03:53:54.082Z,100148.47
2022-09-16T03:56:23.447Z,100144.47
2022-09-16T03:58:50.700Z,100149.00
2022-09-16T04:01:17.798Z,100151.50
2022-09-16T04:03:44.400Z,100145.13
2022-09-16T04:06:11.287Z,100141.00
2022-09-16T04:08:39.569Z,100141.84
2022-09-16T04:11:07.027Z,100151.63
2022-09-16T04:13:35.116Z,100146.53
2022-09-16T04:16:03.436Z,100141.31
2022-09-16T04:18:31.622Z,100140.06
2022-09-16T04:20:59.654Z,100145.97
2022-09-16T04:23:27.463Z,100145.78
2022-09-16T04:25:59.119Z,100139.22
2022-09-16T04:28:26.998Z,100139.81
2022-09-16T04:30:53.749Z,100144.06
2022-09-16T04:33:20.358Z,100136.84
2022-09-16T04:35:47.738Z,100140.19
2022-09-16T04:38:14.345Z,100134.06
2022-09-16T04:40:40.868Z,100135.75
2022-09-16T04:43:07.443Z,100136.84
2022-09-16T04:45:33.954Z,100137.63
2022-09-16T04:48:00.670Z,100136.78
2022-09-16T04:50:27.606Z,100138.38
2022-09-16T04:52:54.386Z,100134.00
2022-09-16T04:55:24.014Z,100144.53
2022-09-16T04:57:50.630Z,100138.78
2022-09-16T05:00:17.286Z,100134.41
2022-09-16T05:02:45.788Z,100134.53
2022-09-16T05:05:12.651Z,100142.69
2022-09-16T05:07:39.260Z,100144.69
2022-09-16T05:10:06.361Z,100141.28
2022-09-16T05:12:32.909Z,100138.53
2022-09-16T05:14:59.426Z,100138.97
2022-09-16T05:17:49.312Z,100136.97
2022-09-16T05:20:14.079Z,100140.38
2022-09-16T05:22:40.647Z,100134.59
2022-09-16T05:25:07.667Z,100140.19
2022-09-16T05:27:35.684Z,100131.31
2022-09-16T05:30:02.315Z,100149.06
2022-09-16T05:32:28.888Z,100143.22
2022-09-16T05:34:56.168Z,100142.38
2022-09-16T05:37:22.656Z,100141.47
2022-09-16T05:39:49.344Z,100140.50
2022-09-16T05:42:15.882Z,100146.69
2022-09-16T05:44:42.521Z,100151.34
2022-09-16T05:47:09.012Z,100147.13
2022-09-16T05:49:37.035Z,100149.44
2022-09-16T05:52:03.711Z,100149.50
2022-09-16T05:54:31.358Z,100149.59
2022-09-16T05:56:57.854Z,100150.66
2022-09-16T05:59:24.480Z,100144.81
2022-09-16T06:01:51.069Z,100147.13
2022-09-16T06:04:17.861Z,100152.38
2022-09-16T06:06:46.168Z,100149.31
2022-09-16T06:09:22.048Z,100149.91
2022-09-16T06:11:50.934Z,100147.31
2022-09-16T06:14:18.864Z,100147.59
2022-09-16T06:16:45.853Z,100149.19
2022-09-16T06:19:15.466Z,100151.13
2022-09-16T06:21:43.835Z,100149.91
2022-09-16T06:24:11.888Z,100156.53
2022-09-16T06:26:40.614Z,100156.66
2022-09-16T06:29:08.135Z,100165.97
2022-09-16T06:31:36.351Z,100164.88
2022-09-16T06:34:03.490Z,100165.91
2022-09-16T06:36:33.491Z,100170.88
2022-09-16T06:39:00.069Z,100168.50
2022-09-16T06:41:27.131Z,100170.22
2022-09-16T06:43:53.797Z,100170.34
2022-09-16T06:46:23.200Z,100164.19
2022-09-16T06:48:52.110Z,100169.72
2022-09-16T06:51:27.772Z,100176.78
2022-09-16T06:53:58.710Z,100174.00
2022-09-16T06:56:25.430Z,100172.13
2022-09-16T06:58:53.162Z,100173.56
2022-09-16T07:01:38.689Z,100171.66
2022-09-16T07:04:15.831Z,100169.25
2022-09-16T07:07:08.118Z,100175.59
2022-09-16T07:09:29.127Z,100173.53
2022-09-16T07:11:55.726Z,100165.75
2022-09-16T07:14:22.962Z,100163.44
2022-09-16T07:16:49.570Z,100161.72
2022-09-16T07:19:16.162Z,100170.66
2022-09-16T07:21:42.836Z,100172.13
2022-09-16T07:24:11.934Z,100171.75
2022-09-16T07:26:40.196Z,100169.50
2022-09-16T07:29:12.350Z,100179.19
2022-09-16T07:31:39.066Z,100180.19
2022-09-16T07:34:08.016Z,100180.94
2022-09-16T07:36:38.130Z,100182.66
2022-09-16T07:39:05.789Z,100183.97
2022-09-16T07:41:35.072Z,100177.72
2022-09-16T07:44:02.625Z,100180.94
2022-09-16T07:46:31.277Z,100173.25
2022-09-16T07:49:00.096Z,100177.28
2022-09-16T07:51:28.100Z,100181.25
2022-09-16T07:54:16.469Z,100179.56
2022-09-16T07:56:44.323Z,100185.13
2022-09-16T07:59:18.337Z,100180.09
2022-09-16T08:01:45.582Z,100180.53
2022-09-16T08:04:12.235Z,100183.38
2022-09-16T08:06:40.034Z,100182.31
2022-09-16T08:09:21.050Z,100190.06
2022-09-16T08:11:53.170Z,100182.94
2022-09-16T08:14:19.681Z,100179.72
2022-09-16T08:16:46.696Z,100180.63
2022-09-16T08:19:13.619Z,100180.16
2022-09-16T08:21:40.181Z,100177.38
2022-09-16T08:24:06.650Z,100173.06
2022-09-16T08:26:33.178Z,100181.34
2022-09-16T08:29:15.378Z,100174.03
2022-09-16T08:31:42.345Z,100178.38
2022-09-16T08:34:08.898Z,100190.28
2022-09-16T08:36:35.605Z,100187.16
2022-09-16T08:39:02.544Z,100181.66
2022-09-16T08:41:53.815Z,100178.91
2022-09-16T08:44:50.517Z,100182.41
2022-09-16T08:47:50.480Z,100189.16
2022-09-16T08:50:40.164Z,100189.44
2022-09-16T08:53:13.605Z,100178.97
2022-09-16T08:55:46.751Z,100179.53
2022-09-16T08:58:17.313Z,100182.81
2022-09-16T09:00:47.320Z,100183.53
2022-09-16T09:03:40.582Z,100177.03
2022-09-16T09:06:54.504Z,100180.75
2022-09-16T09:09:51.878Z,100173.91
2022-09-16T09:12:42.362Z,100181.28
2022-09-16T09:15:28.233Z,100184.22
2022-09-16T09:17:55.114Z,100172.78
2022-09-16T09:20:43.665Z,100171.81
2022-09-16T09:23:48.421Z,100172.56
2022-09-16T09:26:29.550Z,100172.69
2022-09-16T09:29:14.787Z,100169.66
2022-09-16T09:31:53.866Z,100175.53
2022-09-16T09:34:34.171Z,100165.13
2022-09-16T09:37:24.523Z,100156.44
2022-09-16T09:40:13.517Z,100166.81
2022-09-16T09:42:48.811Z,100162.09
2022-09-16T09:45:27.167Z,100161.34
2022-09-16T09:48:13.875Z,100160.41
2022-09-16T09:50:44.232Z,100149.19
2022-09-16T09:53:33.151Z,100158.59
2022-09-16T09:56:05.749Z,100158.09
2022-09-16T09:58:37.118Z,100161.72
2022-09-16T10:01:04.506Z,100150.38
2022-09-16T10:03:31.914Z,100154.72
2022-09-16T10:05:58.529Z,100157.84
2022-09-16T10:08:48.470Z,100159.56
2022-09-16T10:11:16.609Z,100181.94
2022-09-16T10:13:59.284Z,100180.31
2022-09-16T10:16:30.840Z,100180.31
2022-09-16T10:19:02.252Z,100177.75
2022-09-16T10:21:50.929Z,100173.22
2022-09-16T10:24:34.254Z,100166.19
2022-09-16T10:27:17.058Z,100161.84
2022-09-16T10:29:43.632Z,100180.38
2022-09-16T10:32:17.126Z,100172.22
2022-09-16T10:34:44.715Z,100182.50
2022-09-16T10:37:12.756Z,100176.41
2022-09-16T10:39:43.474Z,100168.69
2022-09-16T10:42:23.223Z,100176.44
2022-09-16T10:44:52.720Z,100174.88
2022-09-16T10:47:25.429Z,100160.41
2022-09-16T10:49:58.999Z,100152.19
2022-09-16T10:52:28.646Z,100157.72
2022-09-16T10:54:56.365Z,100166.38
2022-09-16T10:57:24.674Z,100158.41
2022-09-16T11:00:25.078Z,100148.53
2022-09-16T11:03:04.588Z,100154.59
2022-09-16T11:05:46.183Z,100156.88
2022-09-16T11:08:57.958Z,100148.81
2022-09-16T11:11:39.778Z,100155.72
2022-09-16T11:14:44.036Z,100147.59
2022-09-16T11:17:23.698Z,100147.94
2022-09-16T11:19:54.578Z,100146.38
2022-09-16T11:22:42.711Z,100135.84
2022-09-16T11:25:50.465Z,100136.13
2022-09-16T11:28:34.594Z,100149.84
2022-09-16T11:31:30.723Z,100156.06
2022-09-16T11:34:28.468Z,100164.50
2022-09-16T11:37:26.215Z,100167.25
2022-09-16T11:40:02.089Z,100170.41
2022-09-16T11:42:42.406Z,100170.66
2022-09-16T11:45:21.336Z,100171.00
2022-09-16T11:48:06.641Z,100173.56
2022-09-16T11:50:33.431Z,100174.50
2022-09-16T11:53:28.600Z,100177.41
2022-09-16T11:56:14.054Z,100169.06
2022-09-16T11:58:49.869Z,100166.28
2022-09-16T12:01:26.113Z,100176.31
2022-09-16T12:03:59.628Z,100198.03
2022-09-16T12:06:34.240Z,100214.31
2022-09-16T12:09:07.692Z,100236.34
2022-09-16T12:11:45.001Z,100249.69
2022-09-16T12:14:33.736Z,100247.72
2022-09-16T12:17:06.292Z,100240.84
2022-09-16T12:20:02.903Z,100220.72
2022-09-16T12:22:42.239Z,100215.34
2022-09-16T12:25:14.805Z,100219.09
2022-09-16T12:27:45.557Z,100210.81
2022-09-16T12:30:17.489Z,100204.78
2022-09-16T12:33:06.327Z,100195.72
2022-09-16T12:35:57.414Z,100199.66
2022-09-16T12:38:24.167Z,100187.09
2022-09-16T12:40:58.406Z,100186.50
2022-09-16T12:43:36.184Z,100186.16
2022-09-16T12:46:28.186Z,100177.41
2022-09-16T12:49:24.181Z,100177.66
2022-09-16T12:52:08.098Z,100186.03
2022-09-16T12:55:08.087Z,100192.72
2022-09-16T12:58:04.327Z,100196.31
2022-09-16T13:01:05.121Z,100193.84
2022-09-16T13:06:14.927Z,100208.19
2022-09-16T13:08:42.191Z,100210.31
2022-09-16T13:12:07.197Z,100209.88
2022-09-16T13:14:37.203Z,100214.56
2022-09-16T13:17:03.807Z,100204.88
2022-09-16T13:19:53.280Z,100188.19
2022-09-16T13:22:51.758Z,100199.66
2022-09-16T13:25:56.256Z,100193.72
2022-09-16T13:28:38.027Z,100189.13
2022-09-16T13:31:14.233Z,100191.56
2022-09-16T13:33:47.751Z,100167.84
2022-09-16T13:36:20.519Z,100168.78
2022-09-16T13:38:55.360Z,100171.09
2022-09-16T13:41:43.654Z,100164.81
2022-09-16T13:44:41.357Z,100171.56
2022-09-16T13:47:10.923Z,100180.50
2022-09-16T13:50:02.032Z,100184.44
2022-09-16T13:52:36.007Z,100176.50
2022-09-16T13:55:10.445Z,100172.31
2022-09-16T13:57:53.193Z,100175.91
2022-09-16T14:00:19.725Z,100168.47
2022-09-16T14:03:20.208Z,100174.59
2022-09-16T14:06:05.416Z,100167.75
2022-09-16T14:08:31.981Z,100159.50
2022-09-16T14:11:07.358Z,100151.97
2022-09-16T14:14:05.701Z,100149.84
2022-09-16T14:16:35.153Z,100151.56
2022-09-16T14:19:32.395Z,100148.34
2022-09-16T14:22:06.505Z,100152.31
2022-09-16T14:24:38.334Z,100154.25
2022-09-16T14:27:17.604Z,100148.94
2022-09-16T14:30:14.024Z,100145.91
2022-09-16T14:32:41.246Z,100139.06
2022-09-16T14:35:18.809Z,100143.63
2022-09-16T14:37:47.619Z,100130.81
2022-09-16T14:40:17.818Z,100128.06
2022-09-16T14:43:05.798Z,100135.19
2022-09-16T14:45:36.730Z,100123.94
2022-09-16T14:48:08.714Z,100123.47
2022-09-16T14:50:41.222Z,100127.25
2022-09-16T14:53:33.785Z,100130.81
2022-09-16T14:56:02.544Z,100130.75
2022-09-16T14:58:31.983Z,100139.28
2022-09-16T15:01:07.599Z,100140.59
2022-09-16T15:03:52.096Z,100137.72
2022-09-16T15:06:22.939Z,100147.47
2022-09-16T15:08:55.316Z,100143.59
2022-09-16T15:11:46.343Z,100144.84
2022-09-16T15:14:12.790Z,100144.84
2022-09-16T15:16:47.182Z,100152.66
2022-09-16T15:19:21.821Z,100135.91
2022-09-16T15:21:49.163Z,100136.00
2022-09-16T15:24:24.856Z,100131.28
2022-09-16T15:26:53.688Z,100137.91
2022-09-16T15:29:20.635Z,100132.22
2022-09-16T15:31:47.626Z,100141.63
2022-09-16T15:34:18.575Z,100142.34
2022-09-16T15:36:47.400Z,100139.22
2022-09-16T15:39:43.314Z,100143.25
2022-09-16T15:42:16.148Z,100161.41
2022-09-16T15:45:12.271Z,100186.59
2022-09-16T15:47:51.344Z,100182.50
2022-09-16T15:50:22.262Z,100181.03
2022-09-16T15:52:56.801Z,100174.53
2022-09-16T15:55:32.341Z,100151.75
2022-09-16T15:58:02.749Z,100143.91
2022-09-16T16:01:04.749Z,100138.81
2022-09-16T16:03:48.301Z,100142.91
2022-09-16T16:06:15.135Z,100151.31
2022-09-16T16:08:44.173Z,100154.38
2022-09-16T16:11:14.033Z,100158.66
2022-09-16T16:13:41.015Z,100165.88
2022-09-16T16:16:08.343Z,100166.75
2022-09-16T16:18:36.722Z,100176.44
2022-09-16T16:21:08.352Z,100181.28
2022-09-16T16:23:36.481Z,100177.41
2022-09-16T16:26:05.605Z,100175.88
2022-09-16T16:28:32.951Z,100180.44
2022-09-16T16:31:09.889Z,100183.03
2022-09-16T16:33:36.482Z,100189.97
2022-09-16T16:36:03.854Z,100176.34
2022-09-16T16:38:30.449Z,100180.44
2022-09-16T16:40:57.098Z,100179.63
2022-09-16T16:43:23.625Z,100177.28
2022-09-16T16:45:57.147Z,100166.19
2022-09-16T16:48:26.584Z,100173.38
2022-09-16T16:51:05.886Z,100158.31
2022-09-16T16:53:32.617Z,100151.88
2022-09-16T16:56:11.288Z,100163.19
2022-09-16T16:58:41.239Z,100157.19
2022-09-16T17:01:13.154Z,100163.88
2022-09-16T17:03:40.952Z,100170.66
2022-09-16T17:06:07.587Z,100159.31
2022-09-16T17:08:35.555Z,100160.19
2022-09-16T17:11:17.028Z,100165.09
2022-09-16T17:13:46.418Z,100168.88
2022-09-16T17:16:15.843Z,100167.75
2022-09-16T17:18:42.966Z,100172.13
2022-09-16T17:21:18.773Z,100180.09
2022-09-16T17:23:45.644Z,100185.84
2022-09-16T17:26:13.260Z,100187.84
2022-09-16T17:28:41.622Z,100184.44
2022-09-16T17:31:21.288Z,100190.28
2022-09-16T17:33:48.567Z,100198.97
2022-09-16T17:36:17.928Z,100202.44
2022-09-16T17:38:44.562Z,100195.69
2022-09-16T17:41:16.983Z,100197.88
2022-09-16T17:43:44.246Z,100205.94
2022-09-16T17:46:18.045Z,100193.41
2022-09-16T17:48:44.691Z,100196.63
2022-09-16T17:51:11.397Z,100192.34
2022-09-16T17:53:38.495Z,100192.53
2022-09-16T17:56:15.787Z,100204.19
2022-09-16T17:58:47.077Z,100198.66
2022-09-16T18:01:17.548Z,100200.09
2022-09-16T18:03:46.671Z,100196.91
2022-09-16T18:06:16.699Z,100200.94
2022-09-16T18:08:43.801Z,100204.81
2022-09-16T18:11:12.369Z,100205.03
2022-09-16T18:13:39.945Z,100204.25
2022-09-16T18:16:12.357Z,100205.06
2022-09-16T18:18:41.286Z,100208.47
2022-09-16T18:21:10.737Z,100214.91
2022-09-16T18:23:37.464Z,100212.56
2022-09-16T18:26:09.745Z,100224.53
2022-09-16T18:28:51.930Z,100220.94
2022-09-16T18:31:24.838Z,100217.16
2022-09-16T18:33:55.256Z,100214.78
2022-09-16T18:36:25.215Z,100216.47
2022-09-16T18:38:57.146Z,100214.44
2022-09-16T18:41:26.931Z,100222.44
2022-09-16T18:43:56.448Z,100223.09
2022-09-16T18:46:28.866Z,100216.47
2022-09-16T18:48:56.534Z,100227.78
2022-09-16T18:51:32.188Z,100238.81
2022-09-16T18:54:05.781Z,100247.09
2022-09-16T18:56:34.818Z,100239.84
2022-09-16T18:59:22.025Z,100255.75
2022-09-16T19:01:51.545Z,100272.84
2022-09-16T19:04:21.403Z,100275.53
2022-09-16T19:06:50.226Z,100273.38
2022-09-16T19:09:20.120Z,100278.97
2022-09-16T19:11:47.590Z,100270.13
2022-09-16T19:14:15.241Z,100273.91
2022-09-16T19:16:44.561Z,100274.03
2022-09-16T19:19:13.544Z,100286.13
2022-09-16T19:21:40.975Z,100268.53
2022-09-16T19:24:18.055Z,100265.81
2022-09-16T19:26:46.123Z,100262.34
2022-09-16T19:29:14.229Z,100264.44
2022-09-16T19:31:42.521Z,100264.56
2022-09-16T19:34:10.035Z,100262.50
2022-09-16T19:36:37.313Z,100266.59
2022-09-16T19:39:05.126Z,100261.44
2022-09-16T19:41:34.032Z,100261.00
2022-09-16T19:44:06.682Z,100253.97
2022-09-16T19:46:35.716Z,100252.00
2022-09-16T19:49:03.607Z,100252.13
2022-09-16T19:51:30.180Z,100260.28
2022-09-16T19:53:58.271Z,100254.16
2022-09-16T19:56:27.460Z,100257.03
2022-09-16T19:58:54.760Z,100270.63
2022-09-16T20:01:26.757Z,100285.88
2022-09-16T20:03:54.562Z,100292.69
2022-09-16T20:06:23.965Z,100306.63
2022-09-16T20:09:01.200Z,100299.41
2022-09-16T20:11:31.214Z,100302.06
2022-09-16T20:14:00.786Z,100307.75
2022-09-16T20:16:30.705Z,100312.03
2022-09-16T20:18:58.005Z,100300.81
2022-09-16T20:21:26.444Z,100302.56
2022-09-16T20:23:54.218Z,100303.22
2022-09-16T20:26:21.552Z,100302.78
2022-09-16T20:28:53.784Z,100305.28
2022-09-16T20:31:23.203Z,100305.22
2022-09-16T20:33:51.004Z,100316.56
2022-09-16T20:36:23.187Z,100312.03
2022-09-16T20:38:50.876Z,100315.94
2022-09-16T20:41:23.105Z,100315.91
2022-09-16T20:43:50.869Z,100315.56
2022-09-16T20:46:23.443Z,100308.97
2022-09-16T20:48:54.460Z,100311.13
2022-09-16T20:51:23.686Z,100321.53
2022-09-16T20:54:13.794Z,100316.25
2022-09-16T20:56:42.368Z,100320.91
2022-09-16T20:59:11.038Z,100322.22
2022-09-16T21:01:39.528Z,100316.50
2022-09-16T21:04:17.833Z,100323.75
2022-09-16T21:06:45.326Z,100328.63
2022-09-16T21:09:14.424Z,100325.00
2022-09-16T21:11:44.442Z,100323.22
2022-09-16T21:14:15.050Z,100333.69
2022-09-16T21:16:43.095Z,100334.09
2022-09-16T21:19:11.664Z,100330.06
2022-09-16T21:21:41.132Z,100324.34
2022-09-16T21:24:08.588Z,100323.75
2022-09-16T21:26:37.341Z,100328.41
2022-09-16T21:29:10.812Z,100329.44
2022-09-16T21:31:39.269Z,100327.13
2022-09-16T21:34:06.782Z,100334.53
2022-09-16T21:36:35.173Z,100331.19
2022-09-16T21:39:02.062Z,100333.94
2022-09-16T21:41:29.205Z,100331.19
2022-09-16T21:43:57.012Z,100333.06
2022-09-16T21:46:29.590Z,100336.03
2022-09-16T21:49:00.076Z,100336.44
2022-09-16T21:51:27.952Z,100340.91
2022-09-16T21:53:54.811Z,100335.63
2022-09-16T21:56:22.848Z,100337.75
2022-09-16T21:58:53.188Z,100341.75
2022-09-16T22:01:26.010Z,100343.91
2022-09-16T22:04:04.922Z,100345.41
2022-09-16T22:06:32.598Z,100342.81
2022-09-16T22:09:01.374Z,100350.03
2022-09-16T22:11:32.365Z,100343.25
2022-09-16T22:14:00.496Z,100360.06
2022-09-16T22:16:30.364Z,100355.38
2022-09-16T22:19:03.151Z,100353.44
2022-09-16T22:21:32.468Z,100358.13
2022-09-16T22:24:00.630Z,100361.13
2022-09-16T22:26:28.426Z,100368.50
2022-09-16T22:28:55.176Z,100369.16
2022-09-16T22:31:27.931Z,100368.53
2022-09-16T22:33:56.143Z,100369.38
2022-09-16T22:36:25.231Z,100370.44
2022-09-16T22:38:57.747Z,100356.22
2022-09-16T22:41:25.352Z,100357.69
2022-09-16T22:43:53.219Z,100357.72
2022-09-16T22:46:25.954Z,100366.22
2022-09-16T22:48:54.601Z,100348.16
2022-09-16T22:51:21.538Z,100353.47
2022-09-16T22:53:49.460Z,100351.78
2022-09-16T22:56:21.713Z,100356.03
2022-09-16T22:58:53.359Z,100354.53
2022-09-16T23:01:22.429Z,100353.28
2022-09-16T23:03:53.292Z,100349.19
2022-09-16T23:06:20.637Z,100352.19
2022-09-16T23:08:47.363Z,100349.63
2022-09-16T23:11:18.056Z,100348.16
2022-09-16T23:13:45.110Z,100350.50
2022-09-16T23:16:18.851Z,100356.22
2022-09-16T23:18:47.303Z,100346.69
2022-09-16T23:21:17.014Z,100349.63
2022-09-16T23:23:50.558Z,100357.50
2022-09-16T23:26:20.205Z,100347.09
2022-09-16T23:28:50.019Z,100347.09
2022-09-16T23:31:18.517Z,100351.38
2022-09-16T23:33:45.404Z,100353.69
2022-09-16T23:36:14.201Z,100355.38
2022-09-16T23:38:41.961Z,100350.72
2022-09-16T23:41:15.332Z,100337.13
2022-09-16T23:43:43.204Z,100342.63
2022-09-16T23:46:11.604Z,100359.38
2022-09-16T23:48:38.642Z,100348.59
2022-09-16T23:51:07.269Z,100347.28
2022-09-16T23:53:35.729Z,100347.28
2022-09-16T23:56:07.150Z,100346.03
2022-09-16T23:58:34.458Z,100355.59
